sensor_id;sensor_type;location;lat;lon;timestamp;P1;durP1;ratioP1;P2;durP2;ratioP2
6852;SDS011;3465;42.144;24.722;2023-01-05T00:00:55;44.50;;;19.93;;
6852;SDS011;3465;42.144;24.722;2023-01-05T00:03:31;40.90;;;20.47;;
6852;SDS011;3465;42.144;24.722;2023-01-05T00:06:04;43.77;;;21.30;;
6852;SDS011;3465;42.144;24.722;2023-01-05T00:08:40;39.93;;;20.73;;
6852;SDS011;3465;42.144;24.722;2023-01-05T00:11:24;42.57;;;21.17;;
6852;SDS011;3465;42.144;24.722;2023-01-05T00:14:13;38.30;;;20.20;;
6852;SDS011;3465;42.144;24.722;2023-01-05T00:17:13;36.80;;;20.97;;
6852;SDS011;3465;42.144;24.722;2023-01-05T00:19:59;40.53;;;20.77;;
6852;SDS011;3465;42.144;24.722;2023-01-05T00:25:30;40.07;;;20.83;;
6852;SDS011;3465;42.144;24.722;2023-01-05T00:27:57;41.93;;;20.97;;
6852;SDS011;3465;42.144;24.722;2023-01-05T00:30:24;43.57;;;21.00;;
6852;SDS011;3465;42.144;24.722;2023-01-05T00:33:20;44.60;;;20.93;;
6852;SDS011;3465;42.144;24.722;2023-01-05T00:35:45;82.73;;;23.80;;
6852;SDS011;3465;42.144;24.722;2023-01-05T00:38:10;111.53;;;27.13;;
6852;SDS011;3465;42.144;24.722;2023-01-05T00:40:36;191.30;;;32.67;;
6852;SDS011;3465;42.144;24.722;2023-01-05T00:43:02;181.83;;;30.00;;
6852;SDS011;3465;42.144;24.722;2023-01-05T00:45:28;138.87;;;27.80;;
6852;SDS011;3465;42.144;24.722;2023-01-05T00:47:53;121.10;;;26.63;;
6852;SDS011;3465;42.144;24.722;2023-01-05T00:50:20;106.57;;;25.50;;
6852;SDS011;3465;42.144;24.722;2023-01-05T00:52:46;93.27;;;23.77;;
6852;SDS011;3465;42.144;24.722;2023-01-05T00:55:12;97.90;;;23.67;;
6852;SDS011;3465;42.144;24.722;2023-01-05T00:57:38;64.47;;;22.87;;
6852;SDS011;3465;42.144;24.722;2023-01-05T01:00:05;57.73;;;22.20;;
6852;SDS011;3465;42.144;24.722;2023-01-05T01:02:32;51.90;;;21.47;;
6852;SDS011;3465;42.144;24.722;2023-01-05T01:04:58;69.93;;;24.23;;
6852;SDS011;3465;42.144;24.722;2023-01-05T01:07:23;64.43;;;23.07;;
6852;SDS011;3465;42.144;24.722;2023-01-05T01:09:49;59.77;;;21.60;;
6852;SDS011;3465;42.144;24.722;2023-01-05T01:12:14;58.27;;;22.10;;
6852;SDS011;3465;42.144;24.722;2023-01-05T01:14:39;58.53;;;23.00;;
6852;SDS011;3465;42.144;24.722;2023-01-05T01:17:05;64.93;;;22.30;;
6852;SDS011;3465;42.144;24.722;2023-01-05T01:19:30;65.73;;;23.97;;
6852;SDS011;3465;42.144;24.722;2023-01-05T01:21:56;58.53;;;23.13;;
6852;SDS011;3465;42.144;24.722;2023-01-05T01:24:23;52.53;;;21.87;;
6852;SDS011;3465;42.144;24.722;2023-01-05T01:26:50;75.17;;;23.50;;
6852;SDS011;3465;42.144;24.722;2023-01-05T01:29:16;51.77;;;21.47;;
6852;SDS011;3465;42.144;24.722;2023-01-05T01:31:42;53.13;;;22.33;;
6852;SDS011;3465;42.144;24.722;2023-01-05T01:34:08;50.57;;;21.40;;
6852;SDS011;3465;42.144;24.722;2023-01-05T01:36:33;47.73;;;21.07;;
6852;SDS011;3465;42.144;24.722;2023-01-05T01:38:59;56.00;;;20.57;;
6852;SDS011;3465;42.144;24.722;2023-01-05T01:41:24;50.83;;;21.17;;
6852;SDS011;3465;42.144;24.722;2023-01-05T01:43:51;59.77;;;20.60;;
6852;SDS011;3465;42.144;24.722;2023-01-05T01:46:18;55.93;;;21.67;;
6852;SDS011;3465;42.144;24.722;2023-01-05T01:53:57;48.30;;;21.27;;
6852;SDS011;3465;42.144;24.722;2023-01-05T01:56:24;47.27;;;21.00;;
6852;SDS011;3465;42.144;24.722;2023-01-05T01:58:54;56.20;;;21.93;;
6852;SDS011;3465;42.144;24.722;2023-01-05T02:01:20;44.93;;;20.80;;
6852;SDS011;3465;42.144;24.722;2023-01-05T02:03:46;49.33;;;22.23;;
6852;SDS011;3465;42.144;24.722;2023-01-05T02:06:11;48.00;;;22.60;;
6852;SDS011;3465;42.144;24.722;2023-01-05T02:08:37;43.33;;;21.87;;
6852;SDS011;3465;42.144;24.722;2023-01-05T02:33:14;51.13;;;23.93;;
6852;SDS011;3465;42.144;24.722;2023-01-05T02:36:03;45.77;;;22.97;;
6852;SDS011;3465;42.144;24.722;2023-01-05T02:41:12;45.00;;;22.80;;
6852;SDS011;3465;42.144;24.722;2023-01-05T02:43:55;45.40;;;22.87;;
6852;SDS011;3465;42.144;24.722;2023-01-05T02:46:21;45.90;;;22.70;;
6852;SDS011;3465;42.144;24.722;2023-01-05T02:48:47;47.80;;;24.07;;
6852;SDS011;3465;42.144;24.722;2023-01-05T02:51:18;49.53;;;23.13;;
6852;SDS011;3465;42.144;24.722;2023-01-05T02:54:13;48.07;;;22.17;;
6852;SDS011;3465;42.144;24.722;2023-01-05T02:56:54;50.77;;;23.47;;
6852;SDS011;3465;42.144;24.722;2023-01-05T02:59:26;46.27;;;21.83;;
6852;SDS011;3465;42.144;24.722;2023-01-05T03:02:01;53.80;;;23.70;;
6852;SDS011;3465;42.144;24.722;2023-01-05T03:04:33;42.73;;;23.03;;
6852;SDS011;3465;42.144;24.722;2023-01-05T03:07:01;45.00;;;23.23;;
6852;SDS011;3465;42.144;24.722;2023-01-05T03:09:31;56.80;;;24.73;;
6852;SDS011;3465;42.144;24.722;2023-01-05T03:12:06;50.07;;;24.53;;
6852;SDS011;3465;42.144;24.722;2023-01-05T03:14:58;44.77;;;23.87;;
6852;SDS011;3465;42.144;24.722;2023-01-05T03:17:35;47.20;;;23.70;;
6852;SDS011;3465;42.144;24.722;2023-01-05T03:20:06;46.63;;;24.10;;
6852;SDS011;3465;42.144;24.722;2023-01-05T03:22:33;50.63;;;24.43;;
6852;SDS011;3465;42.144;24.722;2023-01-05T03:25:20;52.33;;;25.47;;
6852;SDS011;3465;42.144;24.722;2023-01-05T03:28:09;50.23;;;25.23;;
6852;SDS011;3465;42.144;24.722;2023-01-05T03:34:10;53.63;;;24.43;;
6852;SDS011;3465;42.144;24.722;2023-01-05T03:37:06;54.37;;;26.30;;
6852;SDS011;3465;42.144;24.722;2023-01-05T03:39:37;52.47;;;26.43;;
6852;SDS011;3465;42.144;24.722;2023-01-05T03:42:06;52.73;;;27.20;;
6852;SDS011;3465;42.144;24.722;2023-01-05T03:44:35;60.97;;;27.43;;
6852;SDS011;3465;42.144;24.722;2023-01-05T03:47:02;56.50;;;28.27;;
6852;SDS011;3465;42.144;24.722;2023-01-05T03:49:27;52.10;;;25.97;;
6852;SDS011;3465;42.144;24.722;2023-01-05T03:51:53;61.40;;;25.70;;
6852;SDS011;3465;42.144;24.722;2023-01-05T03:54:18;53.93;;;26.23;;
6852;SDS011;3465;42.144;24.722;2023-01-05T03:56:44;57.97;;;27.20;;
6852;SDS011;3465;42.144;24.722;2023-01-05T03:59:09;54.83;;;27.23;;
6852;SDS011;3465;42.144;24.722;2023-01-05T04:01:35;53.03;;;26.57;;
6852;SDS011;3465;42.144;24.722;2023-01-05T04:04:00;50.70;;;25.50;;
6852;SDS011;3465;42.144;24.722;2023-01-05T04:06:26;54.50;;;27.87;;
6852;SDS011;3465;42.144;24.722;2023-01-05T04:08:51;59.60;;;28.53;;
6852;SDS011;3465;42.144;24.722;2023-01-05T04:11:18;55.30;;;26.53;;
6852;SDS011;3465;42.144;24.722;2023-01-05T04:13:45;56.47;;;27.40;;
6852;SDS011;3465;42.144;24.722;2023-01-05T04:16:11;53.63;;;28.10;;
6852;SDS011;3465;42.144;24.722;2023-01-05T04:18:37;53.07;;;27.93;;
6852;SDS011;3465;42.144;24.722;2023-01-05T04:21:03;54.83;;;27.40;;
6852;SDS011;3465;42.144;24.722;2023-01-05T04:23:29;57.83;;;26.43;;
6852;SDS011;3465;42.144;24.722;2023-01-05T04:25:54;54.93;;;27.77;;
6852;SDS011;3465;42.144;24.722;2023-01-05T04:28:19;60.33;;;28.03;;
6852;SDS011;3465;42.144;24.722;2023-01-05T04:30:48;54.87;;;27.37;;
6852;SDS011;3465;42.144;24.722;2023-01-05T04:33:15;59.07;;;28.80;;
6852;SDS011;3465;42.144;24.722;2023-01-05T04:35:41;55.20;;;28.37;;
6852;SDS011;3465;42.144;24.722;2023-01-05T04:38:06;49.73;;;26.87;;
6852;SDS011;3465;42.144;24.722;2023-01-05T04:40:31;51.20;;;26.80;;
6852;SDS011;3465;42.144;24.722;2023-01-05T04:42:57;51.77;;;27.80;;
6852;SDS011;3465;42.144;24.722;2023-01-05T04:45:22;59.57;;;27.93;;
6852;SDS011;3465;42.144;24.722;2023-01-05T04:47:48;55.47;;;28.07;;
6852;SDS011;3465;42.144;24.722;2023-01-05T04:50:16;61.10;;;27.80;;
6852;SDS011;3465;42.144;24.722;2023-01-05T04:52:41;56.73;;;28.33;;
6852;SDS011;3465;42.144;24.722;2023-01-05T04:55:07;55.73;;;27.47;;
6852;SDS011;3465;42.144;24.722;2023-01-05T04:57:32;52.27;;;27.50;;
6852;SDS011;3465;42.144;24.722;2023-01-05T04:59:58;59.47;;;28.40;;
6852;SDS011;3465;42.144;24.722;2023-01-05T05:02:24;58.00;;;27.37;;
6852;SDS011;3465;42.144;24.722;2023-01-05T05:04:49;57.43;;;27.67;;
6852;SDS011;3465;42.144;24.722;2023-01-05T05:07:14;59.37;;;29.70;;
6852;SDS011;3465;42.144;24.722;2023-01-05T05:09:40;65.70;;;29.47;;
6852;SDS011;3465;42.144;24.722;2023-01-05T05:12:05;60.13;;;30.23;;
6852;SDS011;3465;42.144;24.722;2023-01-05T05:14:31;63.23;;;30.80;;
6852;SDS011;3465;42.144;24.722;2023-01-05T05:16:56;61.37;;;30.07;;
6852;SDS011;3465;42.144;24.722;2023-01-05T05:19:22;73.33;;;32.53;;
6852;SDS011;3465;42.144;24.722;2023-01-05T05:21:47;71.37;;;32.17;;
6852;SDS011;3465;42.144;24.722;2023-01-05T05:24:13;66.40;;;31.50;;
6852;SDS011;3465;42.144;24.722;2023-01-05T05:26:38;73.17;;;32.67;;
6852;SDS011;3465;42.144;24.722;2023-01-05T05:29:04;69.00;;;33.33;;
6852;SDS011;3465;42.144;24.722;2023-01-05T05:31:29;87.50;;;35.13;;
6852;SDS011;3465;42.144;24.722;2023-01-05T05:33:55;84.83;;;36.30;;
6852;SDS011;3465;42.144;24.722;2023-01-05T05:36:20;80.53;;;36.13;;
6852;SDS011;3465;42.144;24.722;2023-01-05T05:38:45;77.10;;;35.47;;
6852;SDS011;3465;42.144;24.722;2023-01-05T05:41:11;73.27;;;34.30;;
6852;SDS011;3465;42.144;24.722;2023-01-05T05:43:36;79.83;;;36.50;;
6852;SDS011;3465;42.144;24.722;2023-01-05T05:46:02;98.87;;;44.20;;
6852;SDS011;3465;42.144;24.722;2023-01-05T05:48:27;104.13;;;43.23;;
6852;SDS011;3465;42.144;24.722;2023-01-05T05:50:53;100.63;;;47.53;;
6852;SDS011;3465;42.144;24.722;2023-01-05T05:53:18;117.10;;;50.43;;
6852;SDS011;3465;42.144;24.722;2023-01-05T05:55:50;103.90;;;47.07;;
6852;SDS011;3465;42.144;24.722;2023-01-05T05:58:16;104.30;;;43.63;;
6852;SDS011;3465;42.144;24.722;2023-01-05T06:00:42;111.23;;;42.13;;
6852;SDS011;3465;42.144;24.722;2023-01-05T06:03:07;105.77;;;44.27;;
6852;SDS011;3465;42.144;24.722;2023-01-05T06:05:33;112.20;;;42.73;;
6852;SDS011;3465;42.144;24.722;2023-01-05T06:07:58;107.83;;;42.97;;
6852;SDS011;3465;42.144;24.722;2023-01-05T06:10:24;96.67;;;42.30;;
6852;SDS011;3465;42.144;24.722;2023-01-05T06:12:51;111.23;;;44.10;;
6852;SDS011;3465;42.144;24.722;2023-01-05T06:15:17;90.83;;;39.63;;
6852;SDS011;3465;42.144;24.722;2023-01-05T06:17:44;86.50;;;40.80;;
6852;SDS011;3465;42.144;24.722;2023-01-05T06:20:10;82.37;;;37.97;;
6852;SDS011;3465;42.144;24.722;2023-01-05T06:22:35;91.80;;;41.87;;
6852;SDS011;3465;42.144;24.722;2023-01-05T06:25:01;92.10;;;41.33;;
6852;SDS011;3465;42.144;24.722;2023-01-05T06:27:26;83.10;;;39.47;;
6852;SDS011;3465;42.144;24.722;2023-01-05T06:29:52;75.53;;;35.70;;
6852;SDS011;3465;42.144;24.722;2023-01-05T06:32:17;70.10;;;34.10;;
6852;SDS011;3465;42.144;24.722;2023-01-05T06:34:43;76.50;;;37.70;;
6852;SDS011;3465;42.144;24.722;2023-01-05T06:37:08;73.30;;;36.20;;
6852;SDS011;3465;42.144;24.722;2023-01-05T06:39:33;101.03;;;34.20;;
6852;SDS011;3465;42.144;24.722;2023-01-05T06:41:59;77.20;;;33.47;;
6852;SDS011;3465;42.144;24.722;2023-01-05T06:44:24;77.43;;;32.13;;
6852;SDS011;3465;42.144;24.722;2023-01-05T06:46:53;76.53;;;33.30;;
6852;SDS011;3465;42.144;24.722;2023-01-05T06:49:18;69.03;;;30.90;;
6852;SDS011;3465;42.144;24.722;2023-01-05T06:51:43;96.27;;;32.63;;
6852;SDS011;3465;42.144;24.722;2023-01-05T06:54:09;72.73;;;31.97;;
6852;SDS011;3465;42.144;24.722;2023-01-05T06:56:35;74.77;;;32.13;;
6852;SDS011;3465;42.144;24.722;2023-01-05T06:59:00;87.97;;;33.27;;
6852;SDS011;3465;42.144;24.722;2023-01-05T07:01:26;78.80;;;34.93;;
6852;SDS011;3465;42.144;24.722;2023-01-05T07:03:51;72.87;;;32.00;;
6852;SDS011;3465;42.144;24.722;2023-01-05T07:06:16;81.37;;;33.27;;
6852;SDS011;3465;42.144;24.722;2023-01-05T07:08:42;67.37;;;33.57;;
6852;SDS011;3465;42.144;24.722;2023-01-05T07:11:07;71.33;;;32.53;;
6852;SDS011;3465;42.144;24.722;2023-01-05T07:13:33;78.80;;;34.93;;
6852;SDS011;3465;42.144;24.722;2023-01-05T07:15:58;71.00;;;32.57;;
6852;SDS011;3465;42.144;24.722;2023-01-05T07:18:24;68.43;;;32.40;;
6852;SDS011;3465;42.144;24.722;2023-01-05T07:20:49;57.97;;;31.07;;
6852;SDS011;3465;42.144;24.722;2023-01-05T07:23:14;65.23;;;31.83;;
6852;SDS011;3465;42.144;24.722;2023-01-05T07:25:40;68.20;;;30.93;;
6852;SDS011;3465;42.144;24.722;2023-01-05T07:28:06;66.40;;;30.27;;
6852;SDS011;3465;42.144;24.722;2023-01-05T07:30:31;56.87;;;28.60;;
6852;SDS011;3465;42.144;24.722;2023-01-05T07:32:57;86.13;;;28.77;;
6852;SDS011;3465;42.144;24.722;2023-01-05T07:35:23;54.37;;;26.10;;
6852;SDS011;3465;42.144;24.722;2023-01-05T07:37:49;49.17;;;26.20;;
6852;SDS011;3465;42.144;24.722;2023-01-05T07:40:14;51.40;;;26.13;;
6852;SDS011;3465;42.144;24.722;2023-01-05T07:42:40;58.37;;;27.20;;
6852;SDS011;3465;42.144;24.722;2023-01-05T07:45:05;45.43;;;25.47;;
6852;SDS011;3465;42.144;24.722;2023-01-05T07:47:31;53.17;;;26.43;;
6852;SDS011;3465;42.144;24.722;2023-01-05T07:49:57;44.80;;;25.23;;
6852;SDS011;3465;42.144;24.722;2023-01-05T07:52:22;52.63;;;27.60;;
6852;SDS011;3465;42.144;24.722;2023-01-05T07:54:47;48.50;;;27.10;;
6852;SDS011;3465;42.144;24.722;2023-01-05T07:57:13;63.27;;;28.73;;
6852;SDS011;3465;42.144;24.722;2023-01-05T07:59:38;65.37;;;29.17;;
6852;SDS011;3465;42.144;24.722;2023-01-05T08:02:04;68.40;;;30.33;;
6852;SDS011;3465;42.144;24.722;2023-01-05T08:04:29;61.63;;;29.07;;
6852;SDS011;3465;42.144;24.722;2023-01-05T08:06:55;73.90;;;30.67;;
6852;SDS011;3465;42.144;24.722;2023-01-05T08:09:20;56.23;;;29.70;;
6852;SDS011;3465;42.144;24.722;2023-01-05T08:12:04;57.17;;;29.33;;
6852;SDS011;3465;42.144;24.722;2023-01-05T08:14:30;62.00;;;31.17;;
6852;SDS011;3465;42.144;24.722;2023-01-05T08:16:55;58.20;;;30.40;;
6852;SDS011;3465;42.144;24.722;2023-01-05T08:19:21;58.20;;;27.77;;
6852;SDS011;3465;42.144;24.722;2023-01-05T08:21:46;48.63;;;25.93;;
6852;SDS011;3465;42.144;24.722;2023-01-05T08:24:12;48.10;;;26.43;;
6852;SDS011;3465;42.144;24.722;2023-01-05T08:26:37;51.97;;;26.87;;
6852;SDS011;3465;42.144;24.722;2023-01-05T08:29:02;61.57;;;27.23;;
6852;SDS011;3465;42.144;24.722;2023-01-05T08:31:29;62.27;;;29.07;;
6852;SDS011;3465;42.144;24.722;2023-01-05T08:34:01;59.23;;;25.87;;
6852;SDS011;3465;42.144;24.722;2023-01-05T08:36:27;55.20;;;25.77;;
6852;SDS011;3465;42.144;24.722;2023-01-05T08:38:52;49.83;;;24.33;;
6852;SDS011;3465;42.144;24.722;2023-01-05T08:41:23;51.03;;;24.07;;
6852;SDS011;3465;42.144;24.722;2023-01-05T08:43:52;51.23;;;24.50;;
6852;SDS011;3465;42.144;24.722;2023-01-05T08:46:22;48.87;;;23.67;;
6852;SDS011;3465;42.144;24.722;2023-01-05T08:48:49;53.23;;;25.43;;
6852;SDS011;3465;42.144;24.722;2023-01-05T08:51:15;55.10;;;26.93;;
6852;SDS011;3465;42.144;24.722;2023-01-05T08:53:41;54.40;;;26.40;;
6852;SDS011;3465;42.144;24.722;2023-01-05T08:56:07;78.77;;;37.07;;
6852;SDS011;3465;42.144;24.722;2023-01-05T08:58:34;68.17;;;33.07;;
6852;SDS011;3465;42.144;24.722;2023-01-05T09:01:04;47.50;;;25.30;;
6852;SDS011;3465;42.144;24.722;2023-01-05T09:03:30;82.27;;;41.53;;
6852;SDS011;3465;42.144;24.722;2023-01-05T09:05:59;51.87;;;27.43;;
6852;SDS011;3465;42.144;24.722;2023-01-05T09:08:27;51.10;;;25.97;;
6852;SDS011;3465;42.144;24.722;2023-01-05T09:10:53;49.87;;;25.87;;
6852;SDS011;3465;42.144;24.722;2023-01-05T09:13:18;48.90;;;25.63;;
6852;SDS011;3465;42.144;24.722;2023-01-05T09:15:43;47.33;;;25.43;;
6852;SDS011;3465;42.144;24.722;2023-01-05T09:18:09;49.40;;;25.17;;
6852;SDS011;3465;42.144;24.722;2023-01-05T09:20:34;56.67;;;26.17;;
6852;SDS011;3465;42.144;24.722;2023-01-05T09:22:59;48.37;;;25.20;;
6852;SDS011;3465;42.144;24.722;2023-01-05T09:25:25;52.87;;;24.73;;
6852;SDS011;3465;42.144;24.722;2023-01-05T09:27:50;39.23;;;20.20;;
6852;SDS011;3465;42.144;24.722;2023-01-05T09:30:16;38.27;;;20.93;;
6852;SDS011;3465;42.144;24.722;2023-01-05T09:32:41;45.40;;;20.63;;
6852;SDS011;3465;42.144;24.722;2023-01-05T09:35:07;39.87;;;18.90;;
6852;SDS011;3465;42.144;24.722;2023-01-05T09:37:32;38.83;;;18.80;;
6852;SDS011;3465;42.144;24.722;2023-01-05T09:39:58;36.03;;;18.77;;
6852;SDS011;3465;42.144;24.722;2023-01-05T09:42:23;39.20;;;19.10;;
6852;SDS011;3465;42.144;24.722;2023-01-05T09:44:59;35.70;;;17.50;;
6852;SDS011;3465;42.144;24.722;2023-01-05T09:47:31;31.30;;;15.97;;
6852;SDS011;3465;42.144;24.722;2023-01-05T09:50:07;28.00;;;15.90;;
6852;SDS011;3465;42.144;24.722;2023-01-05T09:52:41;38.27;;;17.33;;
6852;SDS011;3465;42.144;24.722;2023-01-05T09:55:16;37.27;;;17.90;;
6852;SDS011;3465;42.144;24.722;2023-01-05T09:58:05;31.90;;;17.03;;
6852;SDS011;3465;42.144;24.722;2023-01-05T10:00:34;34.23;;;17.10;;
6852;SDS011;3465;42.144;24.722;2023-01-05T10:03:07;28.43;;;14.97;;
6852;SDS011;3465;42.144;24.722;2023-01-05T10:05:38;30.90;;;16.43;;
6852;SDS011;3465;42.144;24.722;2023-01-05T10:08:16;39.50;;;17.37;;
6852;SDS011;3465;42.144;24.722;2023-01-05T10:10:50;44.17;;;22.20;;
6852;SDS011;3465;42.144;24.722;2023-01-05T10:13:44;43.03;;;20.47;;
6852;SDS011;3465;42.144;24.722;2023-01-05T10:16:20;33.00;;;17.20;;
6852;SDS011;3465;42.144;24.722;2023-01-05T10:18:46;57.30;;;29.13;;
6852;SDS011;3465;42.144;24.722;2023-01-05T10:21:17;31.53;;;17.00;;
6852;SDS011;3465;42.144;24.722;2023-01-05T10:23:54;37.37;;;16.83;;
6852;SDS011;3465;42.144;24.722;2023-01-05T10:31:44;30.67;;;15.80;;
6852;SDS011;3465;42.144;24.722;2023-01-05T10:34:20;27.60;;;14.60;;
6852;SDS011;3465;42.144;24.722;2023-01-05T10:45:02;40.33;;;15.73;;
6852;SDS011;3465;42.144;24.722;2023-01-05T10:47:29;32.20;;;15.40;;
6852;SDS011;3465;42.144;24.722;2023-01-05T10:49:58;32.23;;;14.93;;
6852;SDS011;3465;42.144;24.722;2023-01-05T10:52:26;24.83;;;13.47;;
6852;SDS011;3465;42.144;24.722;2023-01-05T10:54:58;20.27;;;11.67;;
6852;SDS011;3465;42.144;24.722;2023-01-05T10:59:57;17.03;;;9.50;;
6852;SDS011;3465;42.144;24.722;2023-01-05T11:02:23;13.53;;;8.93;;
6852;SDS011;3465;42.144;24.722;2023-01-05T11:04:51;17.17;;;9.20;;
6852;SDS011;3465;42.144;24.722;2023-01-05T11:07:17;15.93;;;8.70;;
6852;SDS011;3465;42.144;24.722;2023-01-05T11:09:43;17.13;;;9.87;;
6852;SDS011;3465;42.144;24.722;2023-01-05T11:14:42;15.00;;;8.93;;
6852;SDS011;3465;42.144;24.722;2023-01-05T11:17:15;19.80;;;10.38;;
6852;SDS011;3465;42.144;24.722;2023-01-05T11:19:45;14.23;;;9.30;;
6852;SDS011;3465;42.144;24.722;2023-01-05T11:30:36;15.30;;;10.27;;
6852;SDS011;3465;42.144;24.722;2023-01-05T11:33:12;16.30;;;9.87;;
6852;SDS011;3465;42.144;24.722;2023-01-05T11:35:46;15.93;;;10.10;;
6852;SDS011;3465;42.144;24.722;2023-01-05T11:38:32;19.93;;;10.40;;
6852;SDS011;3465;42.144;24.722;2023-01-05T11:40:58;21.63;;;9.80;;
6852;SDS011;3465;42.144;24.722;2023-01-05T11:43:25;16.70;;;9.50;;
6852;SDS011;3465;42.144;24.722;2023-01-05T11:45:58;15.97;;;9.37;;
6852;SDS011;3465;42.144;24.722;2023-01-05T11:48:26;14.13;;;8.40;;
6852;SDS011;3465;42.144;24.722;2023-01-05T11:50:56;17.87;;;10.50;;
6852;SDS011;3465;42.144;24.722;2023-01-05T11:53:37;16.03;;;10.13;;
6852;SDS011;3465;42.144;24.722;2023-01-05T12:14:25;18.57;;;10.27;;
6852;SDS011;3465;42.144;24.722;2023-01-05T12:16:54;24.07;;;11.07;;
6852;SDS011;3465;42.144;24.722;2023-01-05T12:19:27;19.20;;;11.37;;
6852;SDS011;3465;42.144;24.722;2023-01-05T12:30:43;20.23;;;11.53;;
6852;SDS011;3465;42.144;24.722;2023-01-05T12:36:09;18.33;;;10.63;;
6852;SDS011;3465;42.144;24.722;2023-01-05T12:38:45;20.37;;;11.07;;
6852;SDS011;3465;42.144;24.722;2023-01-05T12:49:41;20.33;;;11.07;;
6852;SDS011;3465;42.144;24.722;2023-01-05T12:54:49;24.50;;;11.73;;
6852;SDS011;3465;42.144;24.722;2023-01-05T13:00:11;20.57;;;10.87;;
6852;SDS011;3465;42.144;24.722;2023-01-05T13:05:32;20.63;;;10.53;;
6852;SDS011;3465;42.144;24.722;2023-01-05T13:07:59;17.57;;;10.20;;
6852;SDS011;3465;42.144;24.722;2023-01-05T13:10:50;22.00;;;11.73;;
6852;SDS011;3465;42.144;24.722;2023-01-05T13:13:31;25.87;;;11.57;;
6852;SDS011;3465;42.144;24.722;2023-01-05T13:18:56;22.43;;;10.23;;
6852;SDS011;3465;42.144;24.722;2023-01-05T13:21:26;28.50;;;10.30;;
6852;SDS011;3465;42.144;24.722;2023-01-05T13:23:54;20.30;;;10.80;;
6852;SDS011;3465;42.144;24.722;2023-01-05T13:26:35;19.93;;;10.03;;
6852;SDS011;3465;42.144;24.722;2023-01-05T13:29:01;16.63;;;9.57;;
6852;SDS011;3465;42.144;24.722;2023-01-05T13:31:43;16.13;;;8.90;;
6852;SDS011;3465;42.144;24.722;2023-01-05T13:55:46;22.33;;;11.23;;
6852;SDS011;3465;42.144;24.722;2023-01-05T14:01:02;20.03;;;10.93;;
6852;SDS011;3465;42.144;24.722;2023-01-05T14:03:39;19.57;;;10.47;;
6852;SDS011;3465;42.144;24.722;2023-01-05T14:06:23;22.03;;;11.33;;
6852;SDS011;3465;42.144;24.722;2023-01-05T14:08:57;22.37;;;11.60;;
6852;SDS011;3465;42.144;24.722;2023-01-05T14:11:26;22.83;;;11.07;;
6852;SDS011;3465;42.144;24.722;2023-01-05T14:13:54;20.77;;;11.40;;
6852;SDS011;3465;42.144;24.722;2023-01-05T14:24:34;24.70;;;12.40;;
6852;SDS011;3465;42.144;24.722;2023-01-05T14:27:08;28.37;;;12.33;;
6852;SDS011;3465;42.144;24.722;2023-01-05T14:32:12;25.60;;;12.20;;
6852;SDS011;3465;42.144;24.722;2023-01-05T14:34:47;22.70;;;11.83;;
6852;SDS011;3465;42.144;24.722;2023-01-05T14:37:22;30.40;;;12.37;;
6852;SDS011;3465;42.144;24.722;2023-01-05T14:39:53;29.20;;;12.47;;
6852;SDS011;3465;42.144;24.722;2023-01-05T14:42:32;26.83;;;13.17;;
6852;SDS011;3465;42.144;24.722;2023-01-05T14:45:04;26.77;;;14.37;;
6852;SDS011;3465;42.144;24.722;2023-01-05T14:47:33;29.63;;;15.17;;
6852;SDS011;3465;42.144;24.722;2023-01-05T14:56:20;30.60;;;13.63;;
6852;SDS011;3465;42.144;24.722;2023-01-05T15:03:52;33.17;;;15.93;;
6852;SDS011;3465;42.144;24.722;2023-01-05T15:06:33;39.20;;;15.07;;
6852;SDS011;3465;42.144;24.722;2023-01-05T15:09:17;38.90;;;15.80;;
6852;SDS011;3465;42.144;24.722;2023-01-05T15:33:11;33.17;;;14.37;;
6852;SDS011;3465;42.144;24.722;2023-01-05T15:35:55;24.57;;;13.07;;
6852;SDS011;3465;42.144;24.722;2023-01-05T15:38:26;26.73;;;12.83;;
6852;SDS011;3465;42.144;24.722;2023-01-05T15:41:12;32.20;;;14.30;;
6852;SDS011;3465;42.144;24.722;2023-01-05T15:43:40;38.40;;;17.90;;
6852;SDS011;3465;42.144;24.722;2023-01-05T15:46:08;46.37;;;20.23;;
6852;SDS011;3465;42.144;24.722;2023-01-05T15:48:36;43.47;;;19.97;;
6852;SDS011;3465;42.144;24.722;2023-01-05T15:51:05;43.77;;;19.37;;
6852;SDS011;3465;42.144;24.722;2023-01-05T15:53:33;54.20;;;20.60;;
6852;SDS011;3465;42.144;24.722;2023-01-05T15:56:02;47.30;;;20.63;;
6852;SDS011;3465;42.144;24.722;2023-01-05T15:58:30;62.23;;;24.10;;
6852;SDS011;3465;42.144;24.722;2023-01-05T16:01:06;62.10;;;25.60;;
6852;SDS011;3465;42.144;24.722;2023-01-05T16:03:36;76.47;;;28.67;;
6852;SDS011;3465;42.144;24.722;2023-01-05T16:06:04;77.23;;;29.77;;
6852;SDS011;3465;42.144;24.722;2023-01-05T16:08:34;99.23;;;32.23;;
6852;SDS011;3465;42.144;24.722;2023-01-05T16:11:07;95.83;;;32.93;;
6852;SDS011;3465;42.144;24.722;2023-01-05T16:13:36;82.17;;;30.63;;
6852;SDS011;3465;42.144;24.722;2023-01-05T16:16:18;58.83;;;23.47;;
6852;SDS011;3465;42.144;24.722;2023-01-05T16:19:06;48.90;;;20.07;;
6852;SDS011;3465;42.144;24.722;2023-01-05T16:21:41;42.77;;;18.37;;
6852;SDS011;3465;42.144;24.722;2023-01-05T16:24:15;50.10;;;20.50;;
6852;SDS011;3465;42.144;24.722;2023-01-05T16:26:46;50.43;;;20.77;;
6852;SDS011;3465;42.144;24.722;2023-01-05T16:31:53;52.50;;;21.20;;
6852;SDS011;3465;42.144;24.722;2023-01-05T16:34:19;51.40;;;21.07;;
6852;SDS011;3465;42.144;24.722;2023-01-05T16:37:04;45.63;;;19.90;;
6852;SDS011;3465;42.144;24.722;2023-01-05T16:39:39;42.27;;;17.43;;
6852;SDS011;3465;42.144;24.722;2023-01-05T16:42:19;50.73;;;21.30;;
6852;SDS011;3465;42.144;24.722;2023-01-05T16:45:23;52.90;;;22.37;;
6852;SDS011;3465;42.144;24.722;2023-01-05T16:47:54;49.70;;;20.90;;
6852;SDS011;3465;42.144;24.722;2023-01-05T16:52:55;49.80;;;21.10;;
6852;SDS011;3465;42.144;24.722;2023-01-05T16:55:31;43.80;;;19.90;;
6852;SDS011;3465;42.144;24.722;2023-01-05T16:58:02;50.27;;;19.10;;
6852;SDS011;3465;42.144;24.722;2023-01-05T17:02:58;48.00;;;20.43;;
6852;SDS011;3465;42.144;24.722;2023-01-05T17:05:26;44.07;;;20.03;;
6852;SDS011;3465;42.144;24.722;2023-01-05T17:08:08;43.03;;;18.90;;
6852;SDS011;3465;42.144;24.722;2023-01-05T17:10:40;50.13;;;19.67;;
6852;SDS011;3465;42.144;24.722;2023-01-05T17:13:09;53.20;;;21.03;;
6852;SDS011;3465;42.144;24.722;2023-01-05T17:15:44;49.60;;;20.23;;
6852;SDS011;3465;42.144;24.722;2023-01-05T17:18:18;45.87;;;18.37;;
6852;SDS011;3465;42.144;24.722;2023-01-05T17:20:46;51.43;;;18.00;;
6852;SDS011;3465;42.144;24.722;2023-01-05T17:23:14;41.40;;;15.97;;
6852;SDS011;3465;42.144;24.722;2023-01-05T17:25:49;41.03;;;18.00;;
6852;SDS011;3465;42.144;24.722;2023-01-05T17:28:16;40.80;;;18.87;;
6852;SDS011;3465;42.144;24.722;2023-01-05T17:30:42;47.67;;;18.37;;
6852;SDS011;3465;42.144;24.722;2023-01-05T17:33:10;33.10;;;17.20;;
6852;SDS011;3465;42.144;24.722;2023-01-05T17:35:43;36.03;;;17.27;;
6852;SDS011;3465;42.144;24.722;2023-01-05T17:38:10;34.83;;;16.90;;
6852;SDS011;3465;42.144;24.722;2023-01-05T17:40:39;36.13;;;17.10;;
6852;SDS011;3465;42.144;24.722;2023-01-05T17:43:05;31.83;;;16.63;;
6852;SDS011;3465;42.144;24.722;2023-01-05T17:45:31;38.97;;;19.33;;
6852;SDS011;3465;42.144;24.722;2023-01-05T17:47:57;51.17;;;21.70;;
6852;SDS011;3465;42.144;24.722;2023-01-05T17:50:25;47.57;;;19.83;;
6852;SDS011;3465;42.144;24.722;2023-01-05T17:52:54;37.03;;;19.63;;
6852;SDS011;3465;42.144;24.722;2023-01-05T17:55:20;42.87;;;19.43;;